sensor_id;sensor_type;location;lat;lon;timestamp;P1;durP1;ratioP1;P2;durP2;ratioP2
8478;SDS011;4276;49.354;6.804;2023-04-21T00:01:40;9.50;;;8.70;;
8478;SDS011;4276;49.354;6.804;2023-04-21T00:04:07;10.90;;;9.90;;
8478;SDS011;4276;49.354;6.804;2023-04-21T00:06:35;11.25;;;10.25;;
8478;SDS011;4276;49.354;6.804;2023-04-21T00:09:01;12.45;;;11.35;;
8478;SDS011;4276;49.354;6.804;2023-04-21T00:11:30;12.15;;;10.93;;
8478;SDS011;4276;49.354;6.804;2023-04-21T00:13:56;11.75;;;10.75;;
8478;SDS011;4276;49.354;6.804;2023-04-21T00:16:23;12.32;;;11.18;;
8478;SDS011;4276;49.354;6.804;2023-04-21T00:18:50;13.13;;;11.82;;
8478;SDS011;4276;49.354;6.804;2023-04-21T00:21:16;12.40;;;11.30;;
8478;SDS011;4276;49.354;6.804;2023-04-21T00:23:43;12.98;;;11.77;;
8478;SDS011;4276;49.354;6.804;2023-04-21T00:26:10;13.27;;;12.07;;
8478;SDS011;4276;49.354;6.804;2023-04-21T00:28:36;13.23;;;11.93;;
8478;SDS011;4276;49.354;6.804;2023-04-21T00:31:03;12.77;;;11.57;;
8478;SDS011;4276;49.354;6.804;2023-04-21T00:33:29;13.02;;;11.93;;
8478;SDS011;4276;49.354;6.804;2023-04-21T00:35:56;12.45;;;11.35;;
8478;SDS011;4276;49.354;6.804;2023-04-21T00:38:24;13.38;;;12.13;;
8478;SDS011;4276;49.354;6.804;2023-04-21T00:40:50;12.75;;;11.55;;
8478;SDS011;4276;49.354;6.804;2023-04-21T00:43:17;13.32;;;11.93;;
8478;SDS011;4276;49.354;6.804;2023-04-21T00:45:47;13.43;;;12.13;;
8478;SDS011;4276;49.354;6.804;2023-04-21T00:48:13;13.43;;;12.23;;
8478;SDS011;4276;49.354;6.804;2023-04-21T00:50:40;12.82;;;11.73;;
8478;SDS011;4276;49.354;6.804;2023-04-21T00:53:06;14.95;;;13.55;;
8478;SDS011;4276;49.354;6.804;2023-04-21T00:55:34;14.43;;;13.15;;
8478;SDS011;4276;49.354;6.804;2023-04-21T00:58:01;13.35;;;12.15;;
8478;SDS011;4276;49.354;6.804;2023-04-21T01:00:28;14.57;;;13.13;;
8478;SDS011;4276;49.354;6.804;2023-04-21T01:02:55;14.43;;;12.98;;
8478;SDS011;4276;49.354;6.804;2023-04-21T01:05:22;14.30;;;12.88;;
8478;SDS011;4276;49.354;6.804;2023-04-21T01:07:48;14.52;;;13.10;;
8478;SDS011;4276;49.354;6.804;2023-04-21T01:10:15;13.45;;;12.25;;
8478;SDS011;4276;49.354;6.804;2023-04-21T01:12:45;13.50;;;12.20;;
8478;SDS011;4276;49.354;6.804;2023-04-21T01:15:13;14.27;;;12.98;;
8478;SDS011;4276;49.354;6.804;2023-04-21T01:17:41;14.15;;;12.90;;
8478;SDS011;4276;49.354;6.804;2023-04-21T01:20:09;13.48;;;12.23;;
8478;SDS011;4276;49.354;6.804;2023-04-21T01:22:37;15.30;;;13.85;;
8478;SDS011;4276;49.354;6.804;2023-04-21T01:25:05;15.90;;;14.40;;
8478;SDS011;4276;49.354;6.804;2023-04-21T01:27:32;16.23;;;14.75;;
8478;SDS011;4276;49.354;6.804;2023-04-21T01:29:59;15.95;;;14.45;;
8478;SDS011;4276;49.354;6.804;2023-04-21T01:32:26;15.57;;;14.13;;
8478;SDS011;4276;49.354;6.804;2023-04-21T01:34:57;14.55;;;13.18;;
8478;SDS011;4276;49.354;6.804;2023-04-21T01:37:26;15.07;;;13.68;;
8478;SDS011;4276;49.354;6.804;2023-04-21T01:39:55;14.63;;;13.23;;
8478;SDS011;4276;49.354;6.804;2023-04-21T01:42:24;13.65;;;12.38;;
8478;SDS011;4276;49.354;6.804;2023-04-21T01:44:51;14.20;;;12.80;;
8478;SDS011;4276;49.354;6.804;2023-04-21T01:47:22;15.45;;;13.95;;
8478;SDS011;4276;49.354;6.804;2023-04-21T01:49:49;14.90;;;13.50;;
8478;SDS011;4276;49.354;6.804;2023-04-21T01:52:15;14.25;;;12.85;;
8478;SDS011;4276;49.354;6.804;2023-04-21T01:54:42;14.40;;;13.10;;
8478;SDS011;4276;49.354;6.804;2023-04-21T01:57:08;14.70;;;13.25;;
8478;SDS011;4276;49.354;6.804;2023-04-21T01:59:35;14.27;;;12.88;;
8478;SDS011;4276;49.354;6.804;2023-04-21T02:02:02;14.27;;;12.98;;
8478;SDS011;4276;49.354;6.804;2023-04-21T02:04:28;13.35;;;12.07;;
8478;SDS011;4276;49.354;6.804;2023-04-21T02:06:55;14.27;;;12.88;;
8478;SDS011;4276;49.354;6.804;2023-04-21T02:09:21;13.82;;;12.43;;
8478;SDS011;4276;49.354;6.804;2023-04-21T02:11:48;13.73;;;12.52;;
8478;SDS011;4276;49.354;6.804;2023-04-21T02:14:14;14.10;;;12.82;;
8478;SDS011;4276;49.354;6.804;2023-04-21T02:16:41;14.23;;;12.82;;
8478;SDS011;4276;49.354;6.804;2023-04-21T02:19:08;13.95;;;12.65;;
8478;SDS011;4276;49.354;6.804;2023-04-21T02:21:34;13.57;;;12.38;;
8478;SDS011;4276;49.354;6.804;2023-04-21T02:24:00;15.95;;;13.30;;
8478;SDS011;4276;49.354;6.804;2023-04-21T02:26:27;14.48;;;13.18;;
8478;SDS011;4276;49.354;6.804;2023-04-21T02:28:53;14.57;;;13.20;;
8478;SDS011;4276;49.354;6.804;2023-04-21T02:31:20;14.30;;;12.90;;
8478;SDS011;4276;49.354;6.804;2023-04-21T02:33:46;13.85;;;12.55;;
8478;SDS011;4276;49.354;6.804;2023-04-21T02:36:13;14.63;;;13.32;;
8478;SDS011;4276;49.354;6.804;2023-04-21T02:38:39;13.70;;;12.45;;
8478;SDS011;4276;49.354;6.804;2023-04-21T02:41:06;14.05;;;12.70;;
8478;SDS011;4276;49.354;6.804;2023-04-21T02:43:33;14.45;;;12.98;;
8478;SDS011;4276;49.354;6.804;2023-04-21T02:46:05;14.15;;;12.75;;
8478;SDS011;4276;49.354;6.804;2023-04-21T02:48:33;16.42;;;13.77;;
8478;SDS011;4276;49.354;6.804;2023-04-21T02:51:00;14.45;;;13.15;;
8478;SDS011;4276;49.354;6.804;2023-04-21T02:53:26;14.50;;;13.02;;
8478;SDS011;4276;49.354;6.804;2023-04-21T02:55:53;14.70;;;13.30;;
8478;SDS011;4276;49.354;6.804;2023-04-21T02:58:19;14.73;;;13.20;;
8478;SDS011;4276;49.354;6.804;2023-04-21T03:00:46;15.05;;;13.55;;
8478;SDS011;4276;49.354;6.804;2023-04-21T03:03:14;14.68;;;13.27;;
8478;SDS011;4276;49.354;6.804;2023-04-21T03:05:41;14.50;;;13.10;;
8478;SDS011;4276;49.354;6.804;2023-04-21T03:08:07;13.88;;;12.57;;
8478;SDS011;4276;49.354;6.804;2023-04-21T03:10:35;14.77;;;13.27;;
8478;SDS011;4276;49.354;6.804;2023-04-21T03:13:02;15.40;;;13.23;;
8478;SDS011;4276;49.354;6.804;2023-04-21T03:15:28;15.43;;;13.93;;
8478;SDS011;4276;49.354;6.804;2023-04-21T03:17:55;15.50;;;13.98;;
8478;SDS011;4276;49.354;6.804;2023-04-21T03:20:22;15.65;;;14.02;;
8478;SDS011;4276;49.354;6.804;2023-04-21T03:22:48;15.40;;;13.90;;
8478;SDS011;4276;49.354;6.804;2023-04-21T03:25:15;15.00;;;13.50;;
8478;SDS011;4276;49.354;6.804;2023-04-21T03:27:41;14.40;;;13.00;;
8478;SDS011;4276;49.354;6.804;2023-04-21T03:30:08;14.57;;;13.07;;
8478;SDS011;4276;49.354;6.804;2023-04-21T03:32:35;14.15;;;12.85;;
8478;SDS011;4276;49.354;6.804;2023-04-21T03:35:01;14.57;;;12.88;;
8478;SDS011;4276;49.354;6.804;2023-04-21T03:37:28;15.52;;;12.50;;
8478;SDS011;4276;49.354;6.804;2023-04-21T03:39:54;14.77;;;13.30;;
8478;SDS011;4276;49.354;6.804;2023-04-21T03:42:20;14.05;;;12.75;;
8478;SDS011;4276;49.354;6.804;2023-04-21T03:44:47;13.93;;;12.65;;
8478;SDS011;4276;49.354;6.804;2023-04-21T03:47:15;14.52;;;13.13;;
8478;SDS011;4276;49.354;6.804;2023-04-21T03:49:41;15.77;;;14.27;;
8478;SDS011;4276;49.354;6.804;2023-04-21T03:52:08;15.63;;;14.07;;
8478;SDS011;4276;49.354;6.804;2023-04-21T03:54:34;16.15;;;14.52;;
8478;SDS011;4276;49.354;6.804;2023-04-21T03:57:01;16.00;;;14.40;;
8478;SDS011;4276;49.354;6.804;2023-04-21T03:59:28;16.67;;;15.07;;
8478;SDS011;4276;49.354;6.804;2023-04-21T04:01:54;15.90;;;14.30;;
8478;SDS011;4276;49.354;6.804;2023-04-21T04:04:20;15.98;;;14.38;;
8478;SDS011;4276;49.354;6.804;2023-04-21T04:06:47;15.77;;;14.18;;
8478;SDS011;4276;49.354;6.804;2023-04-21T04:09:14;16.13;;;14.55;;
8478;SDS011;4276;49.354;6.804;2023-04-21T04:11:40;16.33;;;14.65;;
8478;SDS011;4276;49.354;6.804;2023-04-21T04:14:07;17.95;;;16.15;;
8478;SDS011;4276;49.354;6.804;2023-04-21T04:16:34;17.13;;;15.48;;
8478;SDS011;4276;49.354;6.804;2023-04-21T04:19:00;20.05;;;17.92;;
8478;SDS011;4276;49.354;6.804;2023-04-21T04:21:27;18.95;;;17.00;;
8478;SDS011;4276;49.354;6.804;2023-04-21T04:23:54;18.13;;;16.35;;
8478;SDS011;4276;49.354;6.804;2023-04-21T04:26:21;17.73;;;16.02;;
8478;SDS011;4276;49.354;6.804;2023-04-21T04:28:50;18.95;;;16.95;;
8478;SDS011;4276;49.354;6.804;2023-04-21T04:31:21;18.45;;;16.55;;
8478;SDS011;4276;49.354;6.804;2023-04-21T04:33:50;17.38;;;15.52;;
8478;SDS011;4276;49.354;6.804;2023-04-21T04:36:20;17.35;;;15.65;;
8478;SDS011;4276;49.354;6.804;2023-04-21T04:38:47;18.27;;;16.33;;
8478;SDS011;4276;49.354;6.804;2023-04-21T04:41:14;17.30;;;15.60;;
8478;SDS011;4276;49.354;6.804;2023-04-21T04:43:41;18.08;;;16.27;;
8478;SDS011;4276;49.354;6.804;2023-04-21T04:46:09;17.63;;;15.93;;
8478;SDS011;4276;49.354;6.804;2023-04-21T04:48:38;17.38;;;15.68;;
8478;SDS011;4276;49.354;6.804;2023-04-21T04:51:04;18.73;;;16.80;;
8478;SDS011;4276;49.354;6.804;2023-04-21T04:53:31;18.42;;;16.33;;
8478;SDS011;4276;49.354;6.804;2023-04-21T04:55:58;17.25;;;15.45;;
8478;SDS011;4276;49.354;6.804;2023-04-21T04:58:24;18.70;;;16.73;;
8478;SDS011;4276;49.354;6.804;2023-04-21T05:00:51;19.20;;;17.30;;
8478;SDS011;4276;49.354;6.804;2023-04-21T05:03:18;17.02;;;15.35;;
8478;SDS011;4276;49.354;6.804;2023-04-21T05:05:44;18.38;;;16.58;;
8478;SDS011;4276;49.354;6.804;2023-04-21T05:08:11;18.08;;;16.27;;
8478;SDS011;4276;49.354;6.804;2023-04-21T05:10:38;17.17;;;15.48;;
8478;SDS011;4276;49.354;6.804;2023-04-21T05:13:04;18.60;;;16.80;;
8478;SDS011;4276;49.354;6.804;2023-04-21T05:15:31;17.70;;;16.00;;
8478;SDS011;4276;49.354;6.804;2023-04-21T05:17:58;18.05;;;16.25;;
8478;SDS011;4276;49.354;6.804;2023-04-21T05:20:24;17.60;;;15.80;;
8478;SDS011;4276;49.354;6.804;2023-04-21T05:22:51;18.88;;;16.88;;
8478;SDS011;4276;49.354;6.804;2023-04-21T05:25:17;17.88;;;16.08;;
8478;SDS011;4276;49.354;6.804;2023-04-21T05:27:44;17.63;;;15.93;;
8478;SDS011;4276;49.354;6.804;2023-04-21T05:30:10;16.95;;;15.35;;
8478;SDS011;4276;49.354;6.804;2023-04-21T05:32:37;17.48;;;15.65;;
8478;SDS011;4276;49.354;6.804;2023-04-21T05:35:04;16.52;;;14.88;;
8478;SDS011;4276;49.354;6.804;2023-04-21T05:37:30;17.20;;;15.48;;
8478;SDS011;4276;49.354;6.804;2023-04-21T05:39:57;17.45;;;15.85;;
8478;SDS011;4276;49.354;6.804;2023-04-21T05:42:23;17.75;;;16.15;;
8478;SDS011;4276;49.354;6.804;2023-04-21T05:44:50;17.35;;;15.77;;
8478;SDS011;4276;49.354;6.804;2023-04-21T05:47:16;17.17;;;15.57;;
8478;SDS011;4276;49.354;6.804;2023-04-21T05:49:43;16.88;;;15.27;;
8478;SDS011;4276;49.354;6.804;2023-04-21T05:52:15;17.40;;;15.80;;
8478;SDS011;4276;49.354;6.804;2023-04-21T05:54:42;17.40;;;15.80;;
8478;SDS011;4276;49.354;6.804;2023-04-21T05:57:09;17.25;;;15.73;;
8478;SDS011;4276;49.354;6.804;2023-04-21T05:59:35;16.45;;;14.95;;
8478;SDS011;4276;49.354;6.804;2023-04-21T06:02:02;17.23;;;15.63;;
8478;SDS011;4276;49.354;6.804;2023-04-21T06:04:29;18.55;;;16.85;;
8478;SDS011;4276;49.354;6.804;2023-04-21T06:07:05;16.73;;;15.23;;
8478;SDS011;4276;49.354;6.804;2023-04-21T06:09:33;17.83;;;16.13;;
8478;SDS011;4276;49.354;6.804;2023-04-21T06:12:00;15.02;;;13.70;;
8478;SDS011;4276;49.354;6.804;2023-04-21T06:14:27;15.43;;;14.02;;
8478;SDS011;4276;49.354;6.804;2023-04-21T06:16:54;15.75;;;14.25;;
8478;SDS011;4276;49.354;6.804;2023-04-21T06:19:20;16.20;;;14.70;;
8478;SDS011;4276;49.354;6.804;2023-04-21T06:21:47;14.65;;;13.35;;
8478;SDS011;4276;49.354;6.804;2023-04-21T06:24:13;15.77;;;14.38;;
8478;SDS011;4276;49.354;6.804;2023-04-21T06:26:40;15.52;;;14.13;;
8478;SDS011;4276;49.354;6.804;2023-04-21T06:29:07;14.70;;;13.40;;
8478;SDS011;4276;49.354;6.804;2023-04-21T06:31:33;15.23;;;13.93;;
8478;SDS011;4276;49.354;6.804;2023-04-21T06:34:00;15.40;;;14.10;;
8478;SDS011;4276;49.354;6.804;2023-04-21T06:36:26;14.32;;;12.93;;
8478;SDS011;4276;49.354;6.804;2023-04-21T06:38:53;15.23;;;13.93;;
8478;SDS011;4276;49.354;6.804;2023-04-21T06:41:20;13.65;;;12.45;;
8478;SDS011;4276;49.354;6.804;2023-04-21T06:43:49;14.25;;;13.05;;
8478;SDS011;4276;49.354;6.804;2023-04-21T06:46:15;14.02;;;12.82;;
8478;SDS011;4276;49.354;6.804;2023-04-21T06:48:43;13.20;;;12.10;;
8478;SDS011;4276;49.354;6.804;2023-04-21T06:51:09;13.00;;;11.90;;
8478;SDS011;4276;49.354;6.804;2023-04-21T06:53:36;13.70;;;12.52;;
8478;SDS011;4276;49.354;6.804;2023-04-21T06:56:03;14.15;;;12.95;;
8478;SDS011;4276;49.354;6.804;2023-04-21T06:58:30;13.60;;;12.48;;
8478;SDS011;4276;49.354;6.804;2023-04-21T07:00:56;14.13;;;13.00;;
8478;SDS011;4276;49.354;6.804;2023-04-21T07:03:22;13.60;;;12.48;;
8478;SDS011;4276;49.354;6.804;2023-04-21T07:05:49;14.45;;;13.15;;
8478;SDS011;4276;49.354;6.804;2023-04-21T07:08:16;13.90;;;12.70;;
8478;SDS011;4276;49.354;6.804;2023-04-21T07:10:42;13.77;;;12.52;;
8478;SDS011;4276;49.354;6.804;2023-04-21T07:13:09;13.05;;;11.85;;
8478;SDS011;4276;49.354;6.804;2023-04-21T07:15:35;14.30;;;13.10;;
8478;SDS011;4276;49.354;6.804;2023-04-21T07:18:02;13.27;;;12.18;;
8478;SDS011;4276;49.354;6.804;2023-04-21T07:20:28;13.75;;;12.65;;
8478;SDS011;4276;49.354;6.804;2023-04-21T07:22:55;14.27;;;13.02;;
8478;SDS011;4276;49.354;6.804;2023-04-21T07:25:21;14.77;;;13.48;;
8478;SDS011;4276;49.354;6.804;2023-04-21T07:27:48;13.65;;;12.55;;
8478;SDS011;4276;49.354;6.804;2023-04-21T07:30:14;13.98;;;12.77;;
8478;SDS011;4276;49.354;6.804;2023-04-21T07:32:41;14.35;;;13.15;;
8478;SDS011;4276;49.354;6.804;2023-04-21T07:35:07;13.00;;;11.90;;
8478;SDS011;4276;49.354;6.804;2023-04-21T07:37:34;12.52;;;11.52;;
8478;SDS011;4276;49.354;6.804;2023-04-21T07:40:00;13.68;;;12.50;;
8478;SDS011;4276;49.354;6.804;2023-04-21T07:42:27;13.65;;;12.55;;
8478;SDS011;4276;49.354;6.804;2023-04-21T07:44:53;14.35;;;13.05;;
8478;SDS011;4276;49.354;6.804;2023-04-21T07:47:21;14.40;;;13.18;;
8478;SDS011;4276;49.354;6.804;2023-04-21T07:49:47;14.75;;;13.45;;
8478;SDS011;4276;49.354;6.804;2023-04-21T07:52:14;13.60;;;12.50;;
8478;SDS011;4276;49.354;6.804;2023-04-21T07:54:40;13.57;;;12.38;;
8478;SDS011;4276;49.354;6.804;2023-04-21T07:57:07;14.13;;;12.93;;
8478;SDS011;4276;49.354;6.804;2023-04-21T07:59:33;13.60;;;12.45;;
8478;SDS011;4276;49.354;6.804;2023-04-21T08:02:00;14.57;;;13.18;;
8478;SDS011;4276;49.354;6.804;2023-04-21T08:04:27;12.00;;;11.00;;
8478;SDS011;4276;49.354;6.804;2023-04-21T08:06:53;12.07;;;11.02;;
8478;SDS011;4276;49.354;6.804;2023-04-21T08:09:20;12.30;;;11.25;;
8478;SDS011;4276;49.354;6.804;2023-04-21T08:11:47;12.73;;;11.63;;
8478;SDS011;4276;49.354;6.804;2023-04-21T08:14:13;13.02;;;11.82;;
8478;SDS011;4276;49.354;6.804;2023-04-21T08:16:40;12.70;;;11.40;;
8478;SDS011;4276;49.354;6.804;2023-04-21T08:19:07;12.00;;;11.00;;
8478;SDS011;4276;49.354;6.804;2023-04-21T08:21:35;12.02;;;10.93;;
8478;SDS011;4276;49.354;6.804;2023-04-21T08:24:01;12.52;;;11.40;;
8478;SDS011;4276;49.354;6.804;2023-04-21T08:26:28;11.45;;;10.55;;
8478;SDS011;4276;49.354;6.804;2023-04-21T08:28:59;15.68;;;14.18;;
8478;SDS011;4276;49.354;6.804;2023-04-21T08:31:29;13.68;;;12.38;;
8478;SDS011;4276;49.354;6.804;2023-04-21T08:33:56;18.05;;;16.50;;
8478;SDS011;4276;49.354;6.804;2023-04-21T08:36:28;12.85;;;11.63;;
8478;SDS011;4276;49.354;6.804;2023-04-21T08:38:56;43.03;;;38.55;;
8478;SDS011;4276;49.354;6.804;2023-04-21T08:41:22;25.52;;;23.27;;
8478;SDS011;4276;49.354;6.804;2023-04-21T08:43:49;26.27;;;23.98;;
8478;SDS011;4276;49.354;6.804;2023-04-21T08:46:16;11.95;;;11.00;;
8478;SDS011;4276;49.354;6.804;2023-04-21T08:48:43;11.15;;;10.25;;
8478;SDS011;4276;49.354;6.804;2023-04-21T08:51:11;14.07;;;13.00;;
8478;SDS011;4276;49.354;6.804;2023-04-21T08:53:40;10.10;;;9.20;;
8478;SDS011;4276;49.354;6.804;2023-04-21T08:56:06;10.93;;;9.77;;
8478;SDS011;4276;49.354;6.804;2023-04-21T08:58:37;10.20;;;9.23;;
8478;SDS011;4276;49.354;6.804;2023-04-21T09:01:03;10.00;;;9.18;;
8478;SDS011;4276;49.354;6.804;2023-04-21T09:03:30;9.73;;;9.02;;
8478;SDS011;4276;49.354;6.804;2023-04-21T09:05:57;10.10;;;9.30;;
8478;SDS011;4276;49.354;6.804;2023-04-21T09:08:25;9.52;;;8.63;;
8478;SDS011;4276;49.354;6.804;2023-04-21T09:10:53;10.57;;;9.68;;
8478;SDS011;4276;49.354;6.804;2023-04-21T09:13:27;9.20;;;8.35;;
8478;SDS011;4276;49.354;6.804;2023-04-21T09:15:54;9.40;;;8.70;;
8478;SDS011;4276;49.354;6.804;2023-04-21T09:18:22;9.80;;;9.00;;
8478;SDS011;4276;49.354;6.804;2023-04-21T09:20:50;8.88;;;8.18;;
8478;SDS011;4276;49.354;6.804;2023-04-21T09:23:30;11.15;;;10.15;;
8478;SDS011;4276;49.354;6.804;2023-04-21T09:25:56;13.57;;;12.35;;
8478;SDS011;4276;49.354;6.804;2023-04-21T09:28:23;8.48;;;7.78;;
8478;SDS011;4276;49.354;6.804;2023-04-21T09:30:58;8.10;;;7.40;;
8478;SDS011;4276;49.354;6.804;2023-04-21T09:33:24;7.88;;;7.25;;
8478;SDS011;4276;49.354;6.804;2023-04-21T09:35:59;8.55;;;7.85;;
8478;SDS011;4276;49.354;6.804;2023-04-21T09:38:26;8.18;;;7.57;;
8478;SDS011;4276;49.354;6.804;2023-04-21T09:40:58;7.57;;;7.05;;
8478;SDS011;4276;49.354;6.804;2023-04-21T09:43:25;7.20;;;6.57;;
8478;SDS011;4276;49.354;6.804;2023-04-21T09:45:52;6.95;;;6.35;;
8478;SDS011;4276;49.354;6.804;2023-04-21T09:48:19;7.03;;;6.43;;
8478;SDS011;4276;49.354;6.804;2023-04-21T09:50:47;7.03;;;6.53;;
8478;SDS011;4276;49.354;6.804;2023-04-21T09:53:17;7.32;;;6.75;;
8478;SDS011;4276;49.354;6.804;2023-04-21T09:55:46;7.25;;;6.65;;
8478;SDS011;4276;49.354;6.804;2023-04-21T09:58:15;6.95;;;6.45;;
8478;SDS011;4276;49.354;6.804;2023-04-21T10:00:45;7.05;;;6.55;;
8478;SDS011;4276;49.354;6.804;2023-04-21T10:03:12;7.47;;;6.88;;
8478;SDS011;4276;49.354;6.804;2023-04-21T10:05:39;6.93;;;6.32;;
8478;SDS011;4276;49.354;6.804;2023-04-21T10:08:08;6.63;;;6.03;;
8478;SDS011;4276;49.354;6.804;2023-04-21T10:10:37;6.45;;;5.95;;
8478;SDS011;4276;49.354;6.804;2023-04-21T10:13:04;6.43;;;5.93;;
8478;SDS011;4276;49.354;6.804;2023-04-21T10:15:36;6.70;;;6.18;;
8478;SDS011;4276;49.354;6.804;2023-04-21T10:18:10;6.70;;;6.20;;
8478;SDS011;4276;49.354;6.804;2023-04-21T10:23:31;6.32;;;5.82;;
8478;SDS011;4276;49.354;6.804;2023-04-21T10:31:32;5.53;;;5.13;;
8478;SDS011;4276;49.354;6.804;2023-04-21T10:44:43;6.85;;;6.35;;
8478;SDS011;4276;49.354;6.804;2023-04-21T10:47:11;6.05;;;5.65;;
8478;SDS011;4276;49.354;6.804;2023-04-21T10:49:38;6.45;;;5.95;;
8478;SDS011;4276;49.354;6.804;2023-04-21T10:52:06;5.80;;;5.40;;
8478;SDS011;4276;49.354;6.804;2023-04-21T10:55:03;5.97;;;5.47;;
8478;SDS011;4276;49.354;6.804;2023-04-21T10:57:30;5.32;;;4.93;;
8478;SDS011;4276;49.354;6.804;2023-04-21T10:59:58;5.28;;;4.88;;
8478;SDS011;4276;49.354;6.804;2023-04-21T11:02:24;4.90;;;4.50;;
8478;SDS011;4276;49.354;6.804;2023-04-21T11:04:54;4.95;;;4.55;;
8478;SDS011;4276;49.354;6.804;2023-04-21T11:07:24;5.00;;;4.63;;
8478;SDS011;4276;49.354;6.804;2023-04-21T11:09:58;5.93;;;5.53;;
8478;SDS011;4276;49.354;6.804;2023-04-21T11:12:29;5.07;;;4.68;;
8478;SDS011;4276;49.354;6.804;2023-04-21T11:14:57;4.72;;;4.32;;
8478;SDS011;4276;49.354;6.804;2023-04-21T11:17:24;4.93;;;4.63;;
8478;SDS011;4276;49.354;6.804;2023-04-21T11:19:54;4.70;;;4.30;;
8478;SDS011;4276;49.354;6.804;2023-04-21T11:22:23;5.00;;;4.60;;
8478;SDS011;4276;49.354;6.804;2023-04-21T11:24:52;4.53;;;4.15;;
8478;SDS011;4276;49.354;6.804;2023-04-21T11:27:19;4.07;;;3.80;;
8478;SDS011;4276;49.354;6.804;2023-04-21T11:29:50;4.00;;;3.70;;
8478;SDS011;4276;49.354;6.804;2023-04-21T11:32:17;3.88;;;3.55;;
8478;SDS011;4276;49.354;6.804;2023-04-21T11:34:44;3.90;;;3.60;;
8478;SDS011;4276;49.354;6.804;2023-04-21T11:37:29;4.05;;;3.63;;
8478;SDS011;4276;49.354;6.804;2023-04-21T11:39:59;4.13;;;3.83;;
8478;SDS011;4276;49.354;6.804;2023-04-21T11:42:26;3.60;;;3.30;;
8478;SDS011;4276;49.354;6.804;2023-04-21T11:44:53;3.83;;;3.60;;
8478;SDS011;4276;49.354;6.804;2023-04-21T11:47:22;3.47;;;2.92;;
8478;SDS011;4276;49.354;6.804;2023-04-21T11:52:27;3.22;;;2.92;;
8478;SDS011;4276;49.354;6.804;2023-04-21T11:57:26;2.55;;;2.35;;
8478;SDS011;4276;49.354;6.804;2023-04-21T11:59:57;2.13;;;2.03;;
8478;SDS011;4276;49.354;6.804;2023-04-21T12:02:25;2.00;;;1.80;;
8478;SDS011;4276;49.354;6.804;2023-04-21T12:04:57;1.73;;;1.63;;
8478;SDS011;4276;49.354;6.804;2023-04-21T12:07:31;1.88;;;1.77;;
8478;SDS011;4276;49.354;6.804;2023-04-21T12:09:59;2.63;;;2.30;;
8478;SDS011;4276;49.354;6.804;2023-04-21T12:12:28;3.63;;;1.92;;
8478;SDS011;4276;49.354;6.804;2023-04-21T12:14:55;2.22;;;1.60;;
8478;SDS011;4276;49.354;6.804;2023-04-21T12:17:21;1.77;;;1.67;;
8478;SDS011;4276;49.354;6.804;2023-04-21T12:19:48;1.92;;;1.70;;
8478;SDS011;4276;49.354;6.804;2023-04-21T12:22:15;1.83;;;1.73;;
8478;SDS011;4276;49.354;6.804;2023-04-21T12:24:47;1.70;;;1.60;;
8478;SDS011;4276;49.354;6.804;2023-04-21T12:27:14;2.00;;;1.83;;
8478;SDS011;4276;49.354;6.804;2023-04-21T12:29:41;1.73;;;1.63;;
8478;SDS011;4276;49.354;6.804;2023-04-21T12:32:08;2.05;;;1.95;;
8478;SDS011;4276;49.354;6.804;2023-04-21T12:34:35;2.10;;;2.00;;
8478;SDS011;4276;49.354;6.804;2023-04-21T12:37:02;1.90;;;1.70;;
8478;SDS011;4276;49.354;6.804;2023-04-21T12:39:28;2.30;;;2.10;;
8478;SDS011;4276;49.354;6.804;2023-04-21T12:41:55;2.00;;;1.80;;
8478;SDS011;4276;49.354;6.804;2023-04-21T12:44:22;1.63;;;1.52;;
8478;SDS011;4276;49.354;6.804;2023-04-21T12:46:49;2.00;;;1.90;;
8478;SDS011;4276;49.354;6.804;2023-04-21T12:49:16;1.90;;;1.80;;
8478;SDS011;4276;49.354;6.804;2023-04-21T12:51:43;2.00;;;1.90;;
8478;SDS011;4276;49.354;6.804;2023-04-21T12:54:10;1.80;;;1.70;;
8478;SDS011;4276;49.354;6.804;2023-04-21T12:56:37;1.70;;;1.60;;
8478;SDS011;4276;49.354;6.804;2023-04-21T12:59:05;1.73;;;1.63;;
8478;SDS011;4276;49.354;6.804;2023-04-21T13:01:32;1.88;;;1.77;;
8478;SDS011;4276;49.354;6.804;2023-04-21T13:03:58;1.30;;;1.30;;
8478;SDS011;4276;49.354;6.804;2023-04-21T13:06:26;1.60;;;1.50;;
8478;SDS011;4276;49.354;6.804;2023-04-21T13:08:53;1.75;;;1.65;;
8478;SDS011;4276;49.354;6.804;2023-04-21T13:11:19;2.05;;;1.90;;
8478;SDS011;4276;49.354;6.804;2023-04-21T13:13:46;1.60;;;1.50;;
8478;SDS011;4276;49.354;6.804;2023-04-21T13:16:12;2.17;;;1.90;;
8478;SDS011;4276;49.354;6.804;2023-04-21T13:18:39;1.80;;;1.70;;
8478;SDS011;4276;49.354;6.804;2023-04-21T13:21:06;1.90;;;1.80;;
8478;SDS011;4276;49.354;6.804;2023-04-21T13:23:32;2.05;;;1.77;;
8478;SDS011;4276;49.354;6.804;2023-04-21T13:25:59;2.40;;;1.63;;
8478;SDS011;4276;49.354;6.804;2023-04-21T13:28:26;1.67;;;1.55;;
8478;SDS011;4276;49.354;6.804;2023-04-21T13:30:52;2.00;;;1.90;;
8478;SDS011;4276;49.354;6.804;2023-04-21T13:33:19;2.83;;;1.60;;
8478;SDS011;4276;49.354;6.804;2023-04-21T13:35:46;2.55;;;2.35;;
8478;SDS011;4276;49.354;6.804;2023-04-21T13:38:12;2.33;;;2.13;;
8478;SDS011;4276;49.354;6.804;2023-04-21T13:40:39;1.70;;;1.15;;
8478;SDS011;4276;49.354;6.804;2023-04-21T13:43:05;7.70;;;7.00;;
8478;SDS011;4276;49.354;6.804;2023-04-21T13:45:32;9.50;;;8.57;;
8478;SDS011;4276;49.354;6.804;2023-04-21T13:47:59;2.72;;;2.53;;
8478;SDS011;4276;49.354;6.804;2023-04-21T13:50:25;1.38;;;1.27;;
8478;SDS011;4276;49.354;6.804;2023-04-21T13:52:52;1.20;;;1.20;;
8478;SDS011;4276;49.354;6.804;2023-04-21T13:55:18;1.25;;;1.17;;
8478;SDS011;4276;49.354;6.804;2023-04-21T13:57:45;1.40;;;1.30;;
8478;SDS011;4276;49.354;6.804;2023-04-21T14:00:13;3.30;;;2.90;;
8478;SDS011;4276;49.354;6.804;2023-04-21T14:02:41;4.28;;;3.05;;
8478;SDS011;4276;49.354;6.804;2023-04-21T14:05:07;2.40;;;2.20;;
8478;SDS011;4276;49.354;6.804;2023-04-21T14:07:34;1.52;;;1.48;;
8478;SDS011;4276;49.354;6.804;2023-04-21T14:10:01;17.88;;;16.08;;
8478;SDS011;4276;49.354;6.804;2023-04-21T14:12:29;8.95;;;8.15;;
8478;SDS011;4276;49.354;6.804;2023-04-21T14:14:56;1.67;;;1.58;;
8478;SDS011;4276;49.354;6.804;2023-04-21T14:17:22;3.33;;;3.03;;
8478;SDS011;4276;49.354;6.804;2023-04-21T14:19:49;4.00;;;3.60;;
8478;SDS011;4276;49.354;6.804;2023-04-21T14:22:18;3.70;;;3.40;;
8478;SDS011;4276;49.354;6.804;2023-04-21T14:24:45;4.38;;;3.97;;
8478;SDS011;4276;49.354;6.804;2023-04-21T14:27:12;2.30;;;2.10;;
8478;SDS011;4276;49.354;6.804;2023-04-21T14:29:39;1.85;;;1.65;;
8478;SDS011;4276;49.354;6.804;2023-04-21T14:32:05;2.03;;;1.85;;
8478;SDS011;4276;49.354;6.804;2023-04-21T14:34:32;2.30;;;2.10;;
8478;SDS011;4276;49.354;6.804;2023-04-21T14:36:59;1.48;;;1.38;;
8478;SDS011;4276;49.354;6.804;2023-04-21T14:39:26;1.50;;;1.00;;
8478;SDS011;4276;49.354;6.804;2023-04-21T14:41:52;1.60;;;1.50;;
8478;SDS011;4276;49.354;6.804;2023-04-21T14:44:19;1.30;;;1.30;;
8478;SDS011;4276;49.354;6.804;2023-04-21T14:46:45;1.48;;;1.40;;
8478;SDS011;4276;49.354;6.804;2023-04-21T14:49:31;1.05;;;1.05;;
8478;SDS011;4276;49.354;6.804;2023-04-21T14:51:58;1.05;;;1.05;;
8478;SDS011;4276;49.354;6.804;2023-04-21T14:54:24;2.13;;;1.52;;
8478;SDS011;4276;49.354;6.804;2023-04-21T14:56:50;1.33;;;1.25;;
8478;SDS011;4276;49.354;6.804;2023-04-21T14:59:28;1.00;;;1.00;;
8478;SDS011;4276;49.354;6.804;2023-04-21T15:01:55;1.15;;;1.10;;
8478;SDS011;4276;49.354;6.804;2023-04-21T15:04:22;1.20;;;1.20;;
8478;SDS011;4276;49.354;6.804;2023-04-21T15:06:49;1.10;;;1.10;;
8478;SDS011;4276;49.354;6.804;2023-04-21T15:09:17;1.40;;;1.30;;
8478;SDS011;4276;49.354;6.804;2023-04-21T15:11:44;1.60;;;1.50;;
8478;SDS011;4276;49.354;6.804;2023-04-21T15:14:11;1.85;;;1.40;;
8478;SDS011;4276;49.354;6.804;2023-04-21T15:16:38;1.70;;;1.13;;
8478;SDS011;4276;49.354;6.804;2023-04-21T15:19:04;1.60;;;1.50;;
8478;SDS011;4276;49.354;6.804;2023-04-21T15:21:31;1.98;;;1.88;;
8478;SDS011;4276;49.354;6.804;2023-04-21T15:23:57;2.92;;;2.30;;